Time;durP1;ratioP1;P1;durP2;ratioP2;P2;SDS_P1;SDS_P2;PMS_P1;PMS_P2;Temp;Humidity;BMP_temperature;BMP_pressure;BME280_temperature;BME280_humidity;BME280_pressure;Samples;Min_cycle;Max_cycle;Signal;HPM_P1;HPM_P2
2021/04/16 07:33:50;;;;;;;0.80;0.80;;;17.60;53.40;;;;;;5065362;28;20386;-43
2021/04/16 07:36:30;;;;;;;0.80;0.80;;;19.10;52.00;;;;;;5064493;28;20017;-42
2021/04/16 07:39:02;;;;;;;2.10;0.80;;;19.20;51.80;;;;;;5051907;28;20568;-42
2021/04/16 07:41:30;;;;;;;0.68;0.68;;;19.10;52.10;;;;;;5066983;28;20041;-42
2021/04/16 07:43:58;;;;;;;0.88;0.70;;;18.90;52.40;;;;;;5060720;28;20063;-42
2021/04/16 07:46:27;;;;;;;0.70;0.70;;;18.90;52.50;;;;;;5055420;28;20033;-43
2021/04/16 07:49:14;;;;;;;1.35;0.57;;;18.80;53.30;;;;;;5065515;28;20421;-43
2021/04/16 07:51:41;;;;;;;0.82;0.82;;;18.70;53.50;;;;;;5065453;28;20025;-40
2021/04/16 07:54:18;;;;;;;0.88;0.75;;;18.60;56.50;;;;;;5064136;28;20505;-42
2021/04/16 07:56:43;;;;;;;1.10;1.00;;;18.50;57.10;;;;;;5066501;28;20053;-44
2021/04/16 07:59:16;;;;;;;0.93;0.70;;;18.50;58.00;;;;;;5062658;28;20588;-42
2021/04/16 08:01:46;;;;;;;0.70;0.70;;;18.50;56.80;;;;;;5062808;28;20052;-42
2021/04/16 08:04:31;;;;;;;0.75;0.75;;;18.50;55.80;;;;;;5034347;28;20033;-42
2021/04/16 08:07:18;;;;;;;0.82;0.82;;;18.60;56.20;;;;;;5040427;28;20511;-41
2021/04/16 08:09:43;;;;;;;2.05;0.77;;;18.50;55.60;;;;;;5042597;28;20093;-41
2021/04/16 08:12:22;;;;;;;1.25;0.90;;;18.70;54.60;;;;;;5051977;28;20478;-41
2021/04/16 08:14:47;;;;;;;1.00;0.90;;;18.70;54.00;;;;;;5054183;28;20510;-40
2021/04/16 08:17:16;;;;;;;0.80;0.80;;;18.70;53.90;;;;;;5051002;28;20123;-41
2021/04/16 08:19:42;;;;;;;1.08;0.95;;;18.70;53.70;;;;;;5050890;28;20032;-41
2021/04/16 08:22:21;;;;;;;1.00;0.90;;;18.80;53.60;;;;;;5050741;28;20041;-41
2021/04/16 08:24:55;;;;;;;1.27;0.80;;;18.80;53.60;;;;;;5050462;28;20017;-41
2021/04/16 08:27:41;;;;;;;1.15;0.90;;;18.70;53.80;;;;;;5046112;28;20352;-38
2021/04/16 08:30:29;;;;;;;1.00;0.80;;;18.80;53.60;;;;;;5048473;28;20013;-40
2021/04/16 08:33:13;;;;;;;0.85;0.85;;;18.90;53.70;;;;;;5035279;28;20052;-41
2021/04/16 08:35:56;;;;;;;0.90;0.63;;;18.80;53.50;;;;;;5048105;28;20022;-41
2021/04/16 08:38:26;;;;;;;0.85;0.85;;;18.90;53.50;;;;;;5050235;28;20124;-41
2021/04/16 08:40:57;;;;;;;0.98;0.98;;;18.90;54.30;;;;;;5050001;28;20092;-45
2021/04/16 08:43:31;;;;;;;1.77;0.90;;;18.90;53.70;;;;;;5040767;28;20701;-33
2021/04/16 08:45:57;;;;;;;0.70;0.70;;;18.90;53.70;;;;;;5038135;28;20048;-39
2021/04/16 08:48:36;;;;;;;0.82;0.60;;;18.90;53.60;;;;;;5040254;28;20035;-37
2021/04/16 08:51:08;;;;;;;0.70;0.70;;;18.90;53.80;;;;;;5037752;28;20078;-46
2021/04/16 08:53:34;;;;;;;0.80;0.80;;;18.90;53.90;;;;;;5038793;28;20029;-47
2021/04/16 08:56:00;;;;;;;1.85;0.80;;;19.00;53.90;;;;;;5038692;28;20025;-43
2021/04/16 08:58:35;;;;;;;0.80;0.80;;;19.00;53.80;;;;;;5038552;28;20036;-41
2021/04/16 09:01:07;;;;;;;0.73;0.70;;;19.00;54.00;;;;;;5021427;28;20497;-37
2021/04/16 09:03:54;;;;;;;0.60;0.60;;;19.10;54.10;;;;;;5039952;28;20421;-40
2021/04/16 09:06:31;;;;;;;0.85;0.70;;;19.10;54.20;;;;;;5038112;28;20029;-44
2021/04/16 09:09:00;;;;;;;0.80;0.80;;;19.20;54.20;;;;;;5039121;28;20033;-39
2021/04/16 09:11:41;;;;;;;2.05;0.80;;;19.20;54.60;;;;;;5037676;28;20025;-43
2021/04/16 09:14:25;;;;;;;1.30;0.82;;;19.30;54.20;;;;;;5037484;28;20064;-46
2021/04/16 09:17:02;;;;;;;3.05;0.90;;;19.30;54.30;;;;;;5039136;28;20041;-43
2021/04/16 09:19:27;;;;;;;0.90;0.85;;;19.30;54.30;;;;;;5036835;28;20029;-44
2021/04/16 09:22:05;;;;;;;0.68;0.68;;;19.40;54.30;;;;;;5037842;28;20045;-43
2021/04/16 09:25:27;;;;;;;1.05;0.98;;;19.40;54.70;;;;;;5036755;28;20118;-45
2021/04/16 09:27:53;;;;;;;1.30;1.20;;;19.40;54.70;;;;;;4991433;28;20080;-44
2021/04/16 09:30:29;;;;;;;3.25;1.00;;;19.50;54.90;;;;;;4993676;28;20034;-44
2021/04/16 09:32:56;;;;;;;1.00;0.90;;;19.50;54.50;;;;;;4964018;28;20431;-44
2021/04/16 09:35:27;;;;;;;0.77;0.73;;;19.50;54.60;;;;;;4631073;28;10000036;-44
2021/04/16 09:38:15;;;;;;;1.58;0.60;;;19.60;54.60;;;;;;4993313;28;20045;-38
2021/04/16 09:40:40;;;;;;;0.73;0.60;;;19.60;54.30;;;;;;4988609;28;20038;-41
2021/04/16 09:43:09;;;;;;;1.17;0.80;;;19.70;54.10;;;;;;4972856;28;20621;-43
2021/04/16 09:45:35;;;;;;;2.10;0.90;;;19.70;54.30;;;;;;4989184;28;20080;-43
2021/04/16 09:48:04;;;;;;;0.90;0.90;;;19.80;54.30;;;;;;4989238;28;20630;-42
2021/04/16 09:50:42;;;;;;;1.13;0.75;;;19.80;54.00;;;;;;4974836;28;20625;-44
2021/04/16 09:53:26;;;;;;;1.00;0.90;;;19.90;53.90;;;;;;4991756;28;20068;-42
2021/04/16 09:55:58;;;;;;;0.73;0.73;;;20.00;53.60;;;;;;4991226;28;20038;-45
2021/04/16 09:58:34;;;;;;;2.20;0.90;;;20.00;53.60;;;;;;5012694;28;20037;-36
2021/04/16 10:01:07;;;;;;;0.65;0.65;;;20.00;53.50;;;;;;5034423;28;20148;-38
2021/04/16 10:03:32;;;;;;;1.05;0.77;;;20.10;53.50;;;;;;5034525;28;20207;-45
2021/04/16 10:06:32;;;;;;;1.13;0.75;;;20.10;53.20;;;;;;5026167;28;20401;-37
2021/04/16 10:09:12;;;;;;;1.80;0.90;;;20.10;53.20;;;;;;5011780;28;20053;-37
2021/04/16 10:11:47;;;;;;;0.95;0.88;;;20.20;53.00;;;;;;4995865;28;20479;-41
2021/04/16 10:14:20;;;;;;;1.02;0.90;;;20.20;52.80;;;;;;5010658;28;20196;-36
2021/04/16 10:16:48;;;;;;;1.83;1.55;;;20.20;52.50;;;;;;4981173;28;20108;-35
2021/04/16 10:19:15;;;;;;;1.30;1.20;;;20.30;52.30;;;;;;4965127;28;20770;-36
2021/04/16 10:21:41;;;;;;;1.00;0.98;;;20.40;51.90;;;;;;4977985;28;20097;-37
2021/04/16 11:11:05;;;;;;;1.80;1.60;;;20.60;51.30;;;;;;5008620;28;20036;-38
2021/04/16 12:39:02;;;;;;;2.05;1.77;;;20.50;50.30;;;;;;5039040;28;20044;-37
2021/04/16 12:41:29;;;;;;;2.10;1.50;;;20.60;48.70;;;;;;5037504;28;20056;-39
2021/04/16 12:43:54;;;;;;;1.38;1.27;;;20.60;47.90;;;;;;5037490;28;20834;-36
2021/04/16 12:46:22;;;;;;;1.77;1.50;;;20.50;46.00;;;;;;5035229;28;20059;-42
2021/04/16 12:48:48;;;;;;;1.65;1.55;;;20.60;47.90;;;;;;5037976;28;20032;-41
2021/04/16 12:51:13;;;;;;;1.50;1.40;;;20.50;48.70;;;;;;5038695;28;20029;-41
2021/04/16 12:53:39;;;;;;;2.30;2.20;;;20.50;48.30;;;;;;5037302;28;20037;-37
2021/04/16 12:56:06;;;;;;;2.40;1.70;;;20.60;45.00;;;;;;5036049;28;20098;-36
2021/04/16 12:58:34;;;;;;;1.73;1.63;;;20.60;46.10;;;;;;5036677;28;20041;-45
2021/04/16 13:01:02;;;;;;;2.00;1.90;;;20.60;47.00;;;;;;5035527;28;20029;-35
2021/04/16 13:03:39;;;;;;;3.65;1.88;;;20.70;43.70;;;;;;5020484;28;20040;-37
2021/04/16 13:06:07;;;;;;;1.80;1.63;;;20.70;44.50;;;;;;5017916;28;20124;-39
2021/04/16 13:08:33;;;;;;;2.00;1.90;;;20.70;44.50;;;;;;5037447;28;20045;-49
2021/04/16 13:11:00;;;;;;;1.85;1.75;;;20.70;45.10;;;;;;5037330;28;20074;-45
2021/04/16 13:13:25;;;;;;;2.13;1.92;;;20.70;43.00;;;;;;5036524;28;20056;-38
2021/04/16 13:15:51;;;;;;;1.98;1.70;;;20.70;42.90;;;;;;5035874;28;20056;-39
2021/04/16 13:18:20;;;;;;;2.35;2.00;;;20.80;43.80;;;;;;5037874;28;20025;-37
2021/04/16 13:20:47;;;;;;;2.08;1.98;;;20.80;43.10;;;;;;5035991;28;20033;-40
2021/04/16 13:23:13;;;;;;;1.90;1.80;;;20.90;40.80;;;;;;5037849;28;20133;-46
2021/04/16 13:25:38;;;;;;;1.80;1.70;;;20.80;43.70;;;;;;5033189;28;20028;-38
2021/04/16 13:28:04;;;;;;;1.90;1.80;;;20.80;44.00;;;;;;5037766;28;20173;-38
2021/04/16 13:30:31;;;;;;;2.40;1.92;;;20.80;41.90;;;;;;5036439;28;20025;-38
2021/04/16 13:32:59;;;;;;;1.98;1.88;;;20.60;42.00;;;;;;5037334;28;20044;-39
2021/04/16 13:35:34;;;;;;;2.20;2.10;;;20.70;39.70;;;;;;5065506;28;20056;-54
2021/04/16 13:38:06;;;;;;;;;;;20.70;41.90;;;;;;5037545;28;20045;-36
2021/04/16 13:40:32;;;;;;;2.20;2.10;;;20.70;39.20;;;;;;5035159;28;19923;-38
2021/04/16 13:42:58;;;;;;;2.10;1.90;;;20.70;38.20;;;;;;5036959;28;20040;-43
2021/04/16 13:45:24;;;;;;;2.00;1.90;;;20.70;41.80;;;;;;5035301;28;20036;-40
2021/04/16 13:47:50;;;;;;;2.17;1.90;;;20.70;41.90;;;;;;5038509;28;20606;-41
2021/04/16 13:50:16;;;;;;;1.98;1.88;;;20.70;40.40;;;;;;5034839;28;20067;-39
2021/04/16 13:52:42;;;;;;;2.00;1.90;;;20.70;39.60;;;;;;5036646;28;20334;-36
2021/04/16 13:55:09;;;;;;;2.33;2.22;;;20.60;40.40;;;;;;5033875;28;20087;-38
2021/04/16 13:57:34;;;;;;;1.90;1.80;;;20.60;39.70;;;;;;5036428;28;20071;-38
2021/04/16 14:00:02;;;;;;;2.47;2.30;;;20.60;39.00;;;;;;5036399;28;20562;-46
2021/04/16 14:02:32;;;;;;;2.70;2.50;;;20.50;37.20;;;;;;5035893;28;20162;-57
2021/04/16 14:04:58;;;;;;;1.70;1.60;;;20.40;37.20;;;;;;5032485;28;20037;-40
2021/04/16 14:07:24;;;;;;;1.52;1.50;;;20.50;41.10;;;;;;5035076;28;20032;-40
2021/04/16 14:09:49;;;;;;;1.67;1.58;;;20.50;40.60;;;;;;5037032;28;20044;-43
2021/04/16 14:12:15;;;;;;;1.83;1.73;;;20.60;41.70;;;;;;5034069;28;20830;-39
2021/04/16 14:14:41;;;;;;;2.05;1.95;;;20.70;40.10;;;;;;5034300;28;20043;-38
2021/04/16 14:17:09;;;;;;;2.20;2.10;;;20.60;39.50;;;;;;5036921;28;20179;-51
2021/04/16 14:19:42;;;;;;;2.20;2.00;;;20.50;40.40;;;;;;5034389;28;20058;-47
2021/04/16 14:22:13;;;;;;;1.80;1.70;;;20.60;40.80;;;;;;5035464;28;20048;-44
2021/04/16 14:24:39;;;;;;;1.88;1.77;;;20.70;42.90;;;;;;5033465;28;20294;-40
2021/04/16 14:27:05;;;;;;;1.90;1.80;;;20.80;41.30;;;;;;4685600;28;10000128;-39
2021/04/16 14:29:30;;;;;;;2.25;2.15;;;20.60;41.80;;;;;;5034564;28;20029;-39
2021/04/16 14:31:56;;;;;;;2.00;1.90;;;20.60;38.40;;;;;;5033199;28;20059;-38
2021/04/16 14:34:34;;;;;;;2.17;2.08;;;20.60;38.90;;;;;;5032530;28;20040;-37
2021/04/16 14:37:00;;;;;;;2.20;2.10;;;20.50;40.40;;;;;;5033148;28;20079;-38
2021/04/16 14:39:27;;;;;;;3.40;2.88;;;20.40;40.20;;;;;;5033996;28;20040;-38
2021/04/16 14:41:55;;;;;;;2.08;1.98;;;20.30;38.40;;;;;;5035268;28;20418;-38
2021/04/16 14:44:21;;;;;;;2.10;2.00;;;20.40;41.00;;;;;;5034612;28;20104;-37
2021/04/16 14:46:49;;;;;;;3.38;2.22;;;20.40;41.20;;;;;;5035444;28;20041;-37
2021/04/16 14:49:17;;;;;;;2.55;2.40;;;20.40;40.20;;;;;;5036393;28;20120;-37
2021/04/16 14:51:42;;;;;;;2.40;2.20;;;20.40;40.10;;;;;;5034266;28;20121;-38
2021/04/16 14:54:23;;;;;;;2.30;2.10;;;20.40;42.10;;;;;;5018090;28;20071;-38
2021/04/16 14:56:49;;;;;;;3.00;2.03;;;20.40;41.10;;;;;;5032491;28;20052;-39
2021/04/16 14:59:23;;;;;;;1.85;1.75;;;20.50;41.20;;;;;;5034446;28;20503;-38
2021/04/16 15:01:51;;;;;;;;;;;20.40;40.20;;;;;;5016915;28;20079;-38
2021/04/16 15:04:17;;;;;;;2.60;2.22;;;20.30;39.90;;;;;;5032659;28;19938;-39
2021/04/16 15:06:43;;;;;;;2.33;2.22;;;20.20;39.40;;;;;;5032268;28;20035;-39
2021/04/16 15:09:10;;;;;;;4.68;2.10;;;20.20;40.50;;;;;;5032506;28;20053;-46
2021/04/16 15:11:37;;;;;;;2.28;1.55;;;20.20;40.00;;;;;;5016693;28;20040;-38
2021/04/16 15:14:04;;;;;;;2.85;2.25;;;20.20;40.10;;;;;;5018808;28;20032;-49
2021/04/16 15:16:29;;;;;;;2.20;2.00;;;20.10;38.20;;;;;;5036251;28;20057;-38
2021/04/16 15:18:55;;;;;;;2.28;2.17;;;20.10;40.10;;;;;;5019750;28;20518;-39
2021/04/16 15:21:21;;;;;;;2.00;1.90;;;20.00;36.20;;;;;;5035250;28;20033;-45
2021/04/16 15:23:49;;;;;;;3.50;2.95;;;20.00;41.80;;;;;;5038172;28;20044;-39
2021/04/16 15:26:16;;;;;;;2.70;2.50;;;19.90;35.60;;;;;;5036007;28;20041;-45
2021/04/16 15:28:57;;;;;;;2.72;2.50;;;20.00;38.90;;;;;;5036373;28;20029;-39
2021/04/16 15:31:25;;;;;;;2.90;2.70;;;19.90;35.80;;;;;;5036280;28;20036;-46
2021/04/16 15:47:38;;;;;;;;;;;20.30;40.70;;;;;;5039063;28;20569;-38
2021/04/16 15:50:07;;;;;;;1.70;1.60;;;20.30;39.50;;;;;;5037019;28;19917;-38
2021/04/16 15:52:33;;;;;;;1.40;1.30;;;20.30;38.80;;;;;;5038088;28;20495;-38
2021/04/16 15:54:58;;;;;;;1.73;1.63;;;20.40;39.60;;;;;;5037011;28;20044;-39
2021/04/16 15:57:24;;;;;;;1.70;1.60;;;20.50;36.70;;;;;;5039795;28;20486;-39
2021/04/16 15:59:49;;;;;;;1.75;1.40;;;20.40;36.80;;;;;;5037321;28;20052;-39
2021/04/16 16:02:17;;;;;;;1.48;1.38;;;20.40;38.00;;;;;;5039857;28;20045;-39
2021/04/16 16:04:42;;;;;;;2.50;1.48;;;20.30;36.80;;;;;;5036791;28;20033;-37
2021/04/16 16:07:08;;;;;;;1.30;1.30;;;20.40;38.80;;;;;;5039034;28;20110;-41
2021/04/16 16:09:34;;;;;;;1.17;1.15;;;20.40;36.90;;;;;;5038153;28;20025;-39
2021/04/16 16:12:09;;;;;;;1.55;1.45;;;20.50;40.80;;;;;;5038888;28;20041;-39
2021/04/16 16:14:36;;;;;;;1.50;1.40;;;20.60;40.50;;;;;;5021994;28;20649;-37
2021/04/16 16:17:02;;;;;;;2.63;1.40;;;20.60;40.70;;;;;;5033235;28;20048;-46
2021/04/16 16:19:28;;;;;;;2.25;1.48;;;20.60;39.50;;;;;;5036211;28;20032;-41
2021/04/16 16:21:54;;;;;;;2.15;1.38;;;20.60;39.80;;;;;;5036771;28;20049;-37
2021/04/16 16:24:19;;;;;;;2.38;1.10;;;20.70;40.20;;;;;;5033565;28;20140;-39
2021/04/16 16:26:46;;;;;;;1.60;1.50;;;20.80;39.90;;;;;;5036850;28;20049;-37
2021/04/16 16:29:22;;;;;;;1.60;1.50;;;20.70;39.30;;;;;;5034748;28;20743;-38
2021/04/16 16:31:47;;;;;;;1.73;1.63;;;20.80;39.40;;;;;;5034115;28;20068;-38
2021/04/16 16:34:15;;;;;;;1.58;1.48;;;20.80;37.20;;;;;;5033613;28;20410;-39
2021/04/16 16:36:44;;;;;;;1.17;1.17;;;20.80;40.90;;;;;;5035773;28;20380;-38
2021/04/16 16:39:09;;;;;;;1.35;1.30;;;20.90;42.00;;;;;;5036356;28;20024;-40
2021/04/16 16:41:36;;;;;;;1.33;1.15;;;20.80;41.10;;;;;;5036141;28;20037;-39
2021/04/16 16:44:02;;;;;;;1.40;1.30;;;20.70;39.50;;;;;;5033665;28;20112;-40
2021/04/16 16:46:32;;;;;;;1.70;1.60;;;20.40;39.00;;;;;;5035046;28;20066;-47
2021/04/16 16:48:58;;;;;;;4.10;2.30;;;20.20;36.90;;;;;;5017644;28;20029;-37
2021/04/16 16:51:25;;;;;;;1.95;1.85;;;20.00;37.20;;;;;;5035183;28;20025;-39
2021/04/16 16:53:50;;;;;;;2.88;1.90;;;20.00;39.30;;;;;;5035625;28;20075;-39
2021/04/16 16:56:20;;;;;;;1.60;1.50;;;20.10;40.50;;;;;;5033185;28;20538;-34
2021/04/16 16:58:45;;;;;;;1.55;1.45;;;20.10;40.60;;;;;;5028349;28;20029;-36
2021/04/16 17:01:18;;;;;;;1.40;1.30;;;20.20;39.70;;;;;;5043379;28;20025;-38
2021/04/16 17:03:43;;;;;;;2.53;1.23;;;20.10;39.90;;;;;;5041599;28;20118;-39
2021/04/16 17:06:09;;;;;;;1.27;1.17;;;20.10;41.70;;;;;;5043216;28;20052;-37
2021/04/16 17:08:35;;;;;;;1.90;1.50;;;20.20;41.40;;;;;;5047232;28;20095;-37
2021/04/16 17:11:01;;;;;;;1.70;1.60;;;20.20;41.50;;;;;;5045319;28;20033;-38
2021/04/16 17:13:26;;;;;;;1.25;1.15;;;20.10;41.50;;;;;;5045622;28;20039;-36
2021/04/16 17:15:54;;;;;;;3.40;1.30;;;20.10;42.60;;;;;;5044314;28;20037;-41
2021/04/16 17:18:20;;;;;;;1.40;1.30;;;20.00;42.40;;;;;;5044444;28;20090;-40
2021/04/16 17:20:46;;;;;;;1.45;1.35;;;20.00;43.00;;;;;;5045954;28;20029;-38
2021/04/16 17:23:12;;;;;;;1.83;1.35;;;20.10;46.10;;;;;;5044145;28;20575;-38
2021/04/16 17:25:37;;;;;;;1.25;1.15;;;20.10;45.80;;;;;;5044720;28;20033;-36
2021/04/16 17:28:04;;;;;;;1.40;1.30;;;20.10;44.50;;;;;;5045248;28;20040;-36
2021/04/16 17:30:39;;;;;;;0.90;0.90;;;20.20;43.60;;;;;;5045754;28;20044;-35
2021/04/16 17:33:07;;;;;;;1.23;1.13;;;20.30;42.90;;;;;;5045673;28;20135;-35
2021/04/16 17:35:32;;;;;;;1.50;1.40;;;20.20;43.20;;;;;;5044540;28;20033;-38
2021/04/16 17:37:58;;;;;;;1.23;1.13;;;20.00;43.30;;;;;;5043427;28;20067;-37
2021/04/16 17:40:25;;;;;;;1.48;1.38;;;20.00;43.60;;;;;;5045012;28;20550;-37
2021/04/16 17:42:52;;;;;;;1.33;1.23;;;20.00;43.70;;;;;;5043268;28;20644;-37
2021/04/16 17:45:21;;;;;;;1.50;1.40;;;20.00;44.00;;;;;;5042563;28;20013;-37
2021/04/16 17:47:46;;;;;;;1.20;1.20;;;20.00;43.80;;;;;;5045116;28;20031;-37
2021/04/16 17:50:24;;;;;;;2.78;2.17;;;20.00;43.70;;;;;;5044955;28;20511;-38
2021/04/16 17:52:49;;;;;;;3.03;2.33;;;20.00;44.20;;;;;;5045049;28;20045;-38
2021/04/16 17:55:15;;;;;;;4.25;2.83;;;20.00;43.80;;;;;;5044630;28;20029;-36
2021/04/16 17:57:41;;;;;;;3.90;2.60;;;20.00;45.10;;;;;;5044796;28;20091;-38
2021/04/16 18:00:07;;;;;;;4.20;2.90;;;20.10;45.10;;;;;;5041144;28;20029;-38
2021/04/16 18:02:33;;;;;;;2.25;2.10;;;20.10;44.80;;;;;;5042307;28;20454;-38
2021/04/16 18:04:58;;;;;;;1.90;1.80;;;20.10;44.60;;;;;;5040850;28;20051;-40
2021/04/16 18:07:27;;;;;;;2.22;2.13;;;20.10;44.80;;;;;;5042350;28;20056;-38
2021/04/16 18:09:53;;;;;;;2.22;2.10;;;20.20;45.20;;;;;;5039848;28;20033;-39
2021/04/16 18:12:18;;;;;;;3.10;2.50;;;20.10;45.90;;;;;;5041744;28;20033;-40
2021/04/16 18:14:44;;;;;;;4.22;2.58;;;20.10;46.10;;;;;;5041985;28;20036;-38
2021/04/16 18:17:10;;;;;;;2.90;2.13;;;20.10;46.40;;;;;;5041970;28;20033;-38
2021/04/16 18:19:36;;;;;;;2.20;2.00;;;20.10;46.50;;;;;;5042004;28;20710;-38
2021/04/16 18:22:01;;;;;;;3.53;1.90;;;20.10;46.20;;;;;;5039698;28;20040;-40
2021/04/16 18:24:37;;;;;;;2.90;2.03;;;20.10;47.20;;;;;;5023275;28;20057;-37
2021/04/16 18:27:11;;;;;;;6.15;2.30;;;20.10;47.20;;;;;;5041713;28;20064;-39
2021/04/16 18:29:36;;;;;;;2.53;2.03;;;20.10;47.10;;;;;;5040527;28;20087;-44
2021/04/16 18:32:02;;;;;;;3.40;2.20;;;20.10;47.10;;;;;;5040730;28;20053;-35
2021/04/16 18:34:28;;;;;;;2.25;2.15;;;20.10;47.00;;;;;;5040259;28;20017;-38
2021/04/16 18:36:53;;;;;;;2.35;2.15;;;20.20;46.70;;;;;;5041241;28;20054;-38
2021/04/16 18:39:31;;;;;;;2.15;1.95;;;20.20;47.20;;;;;;5040622;28;20056;-37
2021/04/16 18:41:57;;;;;;;4.88;2.15;;;20.20;47.20;;;;;;5023838;28;20048;-35
2021/04/16 18:44:28;;;;;;;3.35;1.90;;;20.10;47.70;;;;;;5041339;28;20638;-39
2021/04/16 18:46:54;;;;;;;2.13;1.92;;;20.20;47.50;;;;;;5039295;28;20514;-40
2021/04/16 18:49:20;;;;;;;1.63;1.52;;;20.10;48.00;;;;;;5039827;28;20032;-40
2021/04/16 18:52:00;;;;;;;2.15;1.95;;;20.10;48.30;;;;;;5041652;28;20033;-39
2021/04/16 18:54:30;;;;;;;2.75;2.20;;;20.10;47.40;;;;;;5039458;28;20040;-47
2021/04/16 18:56:56;;;;;;;1.95;1.75;;;20.20;47.50;;;;;;5040250;28;20110;-42
2021/04/16 18:59:21;;;;;;;1.63;1.52;;;20.10;47.40;;;;;;5041788;28;20115;-45
2021/04/16 19:01:50;;;;;;;2.92;1.40;;;20.10;47.70;;;;;;5040515;28;20128;-44
2021/04/16 19:04:17;;;;;;;1.40;1.30;;;20.10;47.70;;;;;;5042071;28;20414;-40
2021/04/16 19:06:45;;;;;;;3.25;1.60;;;20.20;48.00;;;;;;5039746;28;20068;-43
2021/04/16 19:09:15;;;;;;;2.03;1.52;;;20.10;48.00;;;;;;5041818;28;20415;-41
2021/04/16 19:11:41;;;;;;;1.50;1.23;;;20.00;48.10;;;;;;5040306;28;20506;-47
2021/04/16 19:14:07;;;;;;;1.20;1.20;;;20.00;47.80;;;;;;5040880;28;20029;-41
2021/04/16 19:16:33;;;;;;;1.55;1.45;;;20.00;47.90;;;;;;5040618;28;20028;-44
2021/04/16 19:18:58;;;;;;;1.90;1.58;;;20.00;48.00;;;;;;5041719;28;20029;-40
2021/04/16 19:21:45;;;;;;;2.20;1.40;;;20.00;48.10;;;;;;5040557;28;20072;-46
2021/04/16 19:24:28;;;;;;;2.00;1.70;;;20.00;48.30;;;;;;5026831;28;20044;-45
2021/04/16 19:26:53;;;;;;;3.10;1.42;;;19.90;48.20;;;;;;5041286;28;20041;-44
2021/04/16 19:29:19;;;;;;;1.83;1.73;;;20.00;48.20;;;;;;5041683;28;20525;-42
2021/04/16 19:31:45;;;;;;;1.60;1.50;;;20.00;48.30;;;;;;5041256;28;20064;-41
2021/04/16 19:34:11;;;;;;;2.38;1.70;;;20.00;48.10;;;;;;5040714;28;20037;-42
2021/04/16 19:36:45;;;;;;;1.70;1.60;;;19.90;48.20;;;;;;5039152;28;20447;-42
2021/04/16 19:39:20;;;;;;;1.67;1.58;;;20.00;48.30;;;;;;5039174;28;20052;-41
2021/04/16 19:41:47;;;;;;;1.52;1.42;;;20.00;48.10;;;;;;5067038;28;20533;-42
2021/04/16 19:44:13;;;;;;;2.58;1.88;;;20.00;48.80;;;;;;5039180;28;20056;-42
2021/04/16 19:46:39;;;;;;;1.27;1.17;;;20.00;48.30;;;;;;5038409;28;20036;-42
2021/04/16 20:07:19;;;;;;;2.05;1.42;;;20.00;48.80;;;;;;5041693;28;20059;-45
2021/04/16 20:18:56;;;;;;;1.58;1.48;;;19.80;48.30;;;;;;5032452;28;20537;-39
2021/04/16 20:21:32;;;;;;;1.70;1.60;;;19.80;48.40;;;;;;5040903;28;20045;-41
2021/04/16 20:23:57;;;;;;;2.65;1.60;;;19.80;48.50;;;;;;5035009;28;20048;-43
2021/04/16 20:26:27;;;;;;;1.60;1.38;;;19.70;48.40;;;;;;5043273;28;20037;-42
2021/04/16 20:28:53;;;;;;;1.67;1.55;;;19.70;48.50;;;;;;5037810;28;20080;-41
2021/04/16 20:31:19;;;;;;;1.55;1.45;;;19.70;48.50;;;;;;5040853;28;20485;-41
2021/04/16 20:33:49;;;;;;;1.42;1.33;;;19.70;48.60;;;;;;5045357;28;20041;-45
2021/04/16 20:36:30;;;;;;;1.77;1.50;;;19.70;48.70;;;;;;5042213;28;20537;-41
2021/04/16 20:38:56;;;;;;;1.75;1.65;;;19.70;48.70;;;;;;5040994;28;20021;-42
2021/04/16 20:41:22;;;;;;;1.30;1.20;;;19.60;48.70;;;;;;5043751;28;20392;-39
2021/04/16 20:43:53;;;;;;;1.27;1.23;;;19.60;48.70;;;;;;5038065;28;20530;-39
2021/04/16 20:46:27;;;;;;;1.10;1.10;;;19.70;48.70;;;;;;5040185;28;20096;-40
2021/04/16 20:48:53;;;;;;;1.67;1.58;;;19.70;48.50;;;;;;5039985;28;20120;-42
2021/04/16 20:51:22;;;;;;;1.50;1.40;;;19.70;48.60;;;;;;5031131;28;20033;-43
2021/04/16 20:53:48;;;;;;;1.40;1.27;;;19.60;48.60;;;;;;5066147;28;20061;-44
2021/04/16 20:56:14;;;;;;;2.33;1.27;;;19.60;48.70;;;;;;5034656;28;20127;-36
2021/04/16 20:58:39;;;;;;;1.05;0.95;;;19.60;48.70;;;;;;5046750;28;20032;-39
2021/04/16 21:01:05;;;;;;;1.23;1.20;;;19.60;48.70;;;;;;5045316;28;20025;-42
2021/04/16 21:03:36;;;;;;;1.25;1.25;;;19.60;48.70;;;;;;5044826;28;20044;-39
2021/04/16 21:06:34;;;;;;;1.58;1.48;;;19.60;48.90;;;;;;5034768;28;20029;-41
2021/04/16 21:09:05;;;;;;;1.40;1.30;;;19.50;48.80;;;;;;5045071;28;20037;-39
2021/04/16 21:11:34;;;;;;;1.60;1.50;;;19.60;48.70;;;;;;5046292;28;20021;-39
2021/04/16 21:14:00;;;;;;;1.60;1.50;;;19.60;48.80;;;;;;5046704;28;20041;-39
2021/04/16 21:16:29;;;;;;;2.40;1.50;;;19.50;49.50;;;;;;5045325;28;20099;-37
2021/04/16 21:19:00;;;;;;;1.48;1.38;;;19.50;48.90;;;;;;5042971;28;20071;-36
2021/04/16 21:21:31;;;;;;;1.25;1.15;;;19.40;48.80;;;;;;5036165;28;20383;-40
2021/04/16 21:24:00;;;;;;;1.45;1.45;;;19.50;48.60;;;;;;5047739;28;20025;-38
2021/04/16 21:26:32;;;;;;;1.10;1.10;;;19.50;48.50;;;;;;5046858;28;20029;-38
2021/04/16 21:28:58;;;;;;;1.70;1.60;;;19.60;48.40;;;;;;5045361;28;20029;-40
2021/04/16 21:31:36;;;;;;;1.30;1.20;;;19.50;48.40;;;;;;5050145;28;20070;-38
2021/04/16 21:34:04;;;;;;;1.35;1.20;;;19.50;48.30;;;;;;5046535;28;20044;-39
2021/04/16 21:36:32;;;;;;;0.90;0.90;;;19.50;48.30;;;;;;5031217;28;20527;-38
2021/04/16 21:38:58;;;;;;;0.90;0.90;;;19.60;48.30;;;;;;5045996;28;20032;-36
2021/04/16 21:41:27;;;;;;;0.93;0.85;;;19.50;48.60;;;;;;5035981;28;20030;-40
2021/04/16 21:43:53;;;;;;;1.10;1.05;;;19.50;48.20;;;;;;5036663;28;20046;-38
2021/04/16 21:46:39;;;;;;;1.48;1.38;;;19.50;48.30;;;;;;5035146;28;20087;-39
2021/04/16 21:49:13;;;;;;;1.10;1.10;;;19.50;48.40;;;;;;5038670;28;20513;-40
2021/04/16 21:51:40;;;;;;;1.08;1.08;;;19.40;48.60;;;;;;5036908;28;20113;-39
2021/04/16 21:54:34;;;;;;;1.35;0.77;;;19.40;48.60;;;;;;5033661;28;20195;-37
2021/04/16 21:57:02;;;;;;;1.05;0.95;;;19.40;48.60;;;;;;5038287;28;20403;-37
2021/04/16 21:59:29;;;;;;;1.23;1.20;;;19.40;48.80;;;;;;4685034;28;9999844;-40
2021/04/16 22:02:06;;;;;;;1.42;1.33;;;19.40;49.20;;;;;;5040076;28;20044;-47
2021/04/16 22:04:37;;;;;;;2.60;1.45;;;19.30;48.50;;;;;;5037682;28;20025;-41
2021/04/16 22:07:05;;;;;;;1.25;1.15;;;19.30;48.70;;;;;;5039278;28;20481;-33
2021/04/16 22:09:42;;;;;;;1.30;1.20;;;19.30;48.50;;;;;;5037018;28;20515;-36
2021/04/16 22:12:11;;;;;;;0.93;0.93;;;19.40;48.60;;;;;;5039644;28;20060;-32
2021/04/16 22:14:41;;;;;;;2.35;1.30;;;19.50;48.50;;;;;;5040221;28;20092;-35
2021/04/16 22:17:09;;;;;;;1.50;1.40;;;19.50;49.20;;;;;;5040203;28;20037;-37
2021/04/16 22:19:35;;;;;;;3.15;1.42;;;19.40;49.20;;;;;;5039465;28;20769;-38
2021/04/16 22:22:05;;;;;;;0.90;0.90;;;19.40;49.30;;;;;;5039344;28;20041;-40
2021/04/16 22:24:55;;;;;;;1.48;1.25;;;19.40;48.70;;;;;;5022559;28;20033;-42
2021/04/16 22:27:26;;;;;;;1.27;1.17;;;19.30;49.50;;;;;;5039556;28;20552;-38
2021/04/16 22:29:54;;;;;;;1.08;0.95;;;19.40;48.80;;;;;;5038303;28;20142;-40
2021/04/16 22:32:22;;;;;;;1.30;1.20;;;19.40;48.90;;;;;;5038589;28;20577;-41
2021/04/16 22:34:47;;;;;;;2.22;1.10;;;19.40;49.50;;;;;;5039249;28;20044;-48
2021/04/16 22:37:23;;;;;;;1.25;1.10;;;19.40;49.00;;;;;;5040009;28;20037;-43
2021/04/16 22:39:49;;;;;;;1.00;1.00;;;19.30;49.00;;;;;;5038969;28;20037;-48
2021/04/16 22:42:16;;;;;;;1.05;1.02;;;19.30;49.10;;;;;;5036883;28;20040;-40
2021/04/16 22:44:48;;;;;;;2.03;1.10;;;19.30;49.00;;;;;;5019772;28;20033;-40
2021/04/16 22:47:19;;;;;;;0.82;0.82;;;19.30;49.00;;;;;;5021356;28;20629;-39
2021/04/16 22:49:45;;;;;;;1.40;1.30;;;19.30;48.80;;;;;;5019760;28;20503;-40
2021/04/16 22:52:18;;;;;;;1.48;1.38;;;19.30;49.70;;;;;;5039734;28;20415;-41
2021/04/16 22:54:44;;;;;;;1.08;1.00;;;19.20;49.10;;;;;;5039705;28;20070;-44
2021/04/16 22:57:20;;;;;;;1.40;1.27;;;19.20;49.20;;;;;;5038345;28;20040;-41
2021/04/16 22:59:46;;;;;;;1.15;1.15;;;19.20;49.00;;;;;;5036745;28;20025;-41
2021/04/16 23:02:44;;;;;;;1.23;1.10;;;19.30;49.00;;;;;;5037064;28;20071;-44
2021/04/16 23:05:24;;;;;;;1.40;1.10;;;19.30;49.00;;;;;;5036985;28;20053;-41
2021/04/16 23:07:50;;;;;;;1.80;1.17;;;19.20;49.10;;;;;;5039713;28;20407;-46
2021/04/16 23:10:32;;;;;;;1.40;1.30;;;19.20;49.30;;;;;;5038494;28;20040;-43
2021/04/16 23:12:57;;;;;;;0.80;0.80;;;19.20;49.10;;;;;;5037861;28;20747;-41
2021/04/16 23:15:29;;;;;;;1.50;1.20;;;19.30;49.20;;;;;;5035730;28;20063;-38
2021/04/16 23:17:55;;;;;;;2.55;1.23;;;19.30;49.30;;;;;;5021182;28;20566;-49
2021/04/16 23:20:21;;;;;;;0.82;0.82;;;19.20;49.00;;;;;;5035244;28;20063;-36
2021/04/16 23:22:48;;;;;;;1.10;1.10;;;19.20;49.30;;;;;;5038420;28;20033;-47
2021/04/16 23:25:17;;;;;;;1.33;1.23;;;19.20;49.10;;;;;;5036797;28;20045;-45
2021/04/16 23:27:53;;;;;;;2.03;1.08;;;19.10;49.30;;;;;;5038185;28;20036;-40